createdAt,value
2022-11-08T00:01:31.282Z,67.63
2022-11-08T00:04:00.241Z,67.70
2022-11-08T00:06:45.543Z,67.79
2022-11-08T00:09:30.752Z,67.62
2022-11-08T00:12:16.228Z,67.83
2022-11-08T00:14:44.078Z,69.14
2022-11-08T00:17:11.477Z,68.63
2022-11-08T00:19:40.200Z,68.46
2022-11-08T00:22:07.613Z,68.60
2022-11-08T00:24:35.661Z,68.49
2022-11-08T00:27:04.174Z,68.50
2022-11-08T00:29:31.603Z,68.44
2022-11-08T00:31:59.045Z,68.49
2022-11-08T00:34:26.472Z,68.40
2022-11-08T00:36:55.183Z,68.50
2022-11-08T00:39:22.613Z,68.53
2022-11-08T00:41:50.025Z,68.40
2022-11-08T00:44:17.438Z,68.20
2022-11-08T00:46:44.848Z,68.21
2022-11-08T00:49:12.259Z,68.13
2022-11-08T00:51:39.663Z,68.32
2022-11-08T00:54:08.478Z,68.45
2022-11-08T00:56:35.879Z,68.68
2022-11-08T00:59:03.294Z,68.80
2022-11-08T01:01:30.803Z,68.89
2022-11-08T01:03:58.270Z,69.13
2022-11-08T01:06:26.162Z,69.02
2022-11-08T01:08:53.561Z,69.10
2022-11-08T01:11:23.226Z,68.99
2022-11-08T01:13:50.702Z,69.07
2022-11-08T01:16:19.022Z,68.98
2022-11-08T01:18:46.500Z,69.21
2022-11-08T01:21:14.091Z,69.19
2022-11-08T01:23:43.719Z,69.04
2022-11-08T01:26:12.212Z,69.16
2022-11-08T01:28:40.894Z,68.97
2022-11-08T01:31:09.332Z,69.21
2022-11-08T01:33:36.727Z,69.03
2022-11-08T01:36:04.257Z,69.17
2022-11-08T01:38:31.675Z,69.14
2022-11-08T01:40:59.135Z,69.10
2022-11-08T01:43:32.629Z,69.30
2022-11-08T01:46:36.819Z,69.24
2022-11-08T01:49:30.526Z,69.24
2022-11-08T01:52:11.779Z,69.24
2022-11-08T01:54:40.772Z,69.19
2022-11-08T01:57:09.900Z,69.04
2022-11-08T01:59:37.340Z,69.23
2022-11-08T02:02:04.945Z,69.00
2022-11-08T02:04:33.758Z,69.18
2022-11-08T02:07:01.364Z,69.21
2022-11-08T02:09:28.760Z,69.00
2022-11-08T02:11:56.175Z,69.06
2022-11-08T02:14:23.583Z,69.38
2022-11-08T02:16:51.138Z,69.20
2022-11-08T02:19:27.770Z,69.41
2022-11-08T02:21:58.489Z,69.14
2022-11-08T02:24:27.178Z,69.16
2022-11-08T02:26:54.687Z,69.30
2022-11-08T02:29:26.886Z,69.44
2022-11-08T02:31:54.419Z,69.16
2022-11-08T02:34:23.431Z,69.35
2022-11-08T02:36:50.838Z,69.20
2022-11-08T02:39:18.806Z,69.47
2022-11-08T02:41:47.489Z,69.18
2022-11-08T02:44:14.886Z,69.24
2022-11-08T02:46:42.291Z,69.40
2022-11-08T02:49:09.700Z,69.38
2022-11-08T02:51:37.104Z,69.37
2022-11-08T02:54:04.639Z,69.23
2022-11-08T02:56:32.052Z,69.41
2022-11-08T02:59:00.736Z,69.32
2022-11-08T03:01:28.206Z,69.43
2022-11-08T03:03:55.676Z,69.50
2022-11-08T03:06:23.101Z,69.60
2022-11-08T03:08:50.493Z,69.54
2022-11-08T03:11:17.911Z,69.56
2022-11-08T03:13:45.313Z,69.82
2022-11-08T03:16:14.002Z,69.65
2022-11-08T03:18:41.446Z,69.48
2022-11-08T03:21:08.840Z,69.57
2022-11-08T03:23:36.349Z,69.51
2022-11-08T03:26:03.767Z,69.46
2022-11-08T03:28:31.354Z,69.77
2022-11-08T03:30:58.767Z,69.65
2022-11-08T03:33:27.492Z,69.80
2022-11-08T03:35:54.932Z,69.74
2022-11-08T03:38:22.330Z,69.77
2022-11-08T03:40:49.745Z,69.64
2022-11-08T03:43:17.148Z,69.76
2022-11-08T03:45:46.113Z,69.83
2022-11-08T03:48:13.512Z,69.71
2022-11-08T03:50:42.200Z,69.63
2022-11-08T03:53:09.606Z,69.59
2022-11-08T03:55:37.014Z,69.79
2022-11-08T03:58:04.441Z,69.49
2022-11-08T04:00:31.835Z,69.42
2022-11-08T04:03:01.733Z,69.45
2022-11-08T04:05:29.160Z,69.48
2022-11-08T04:07:57.859Z,69.52
2022-11-08T04:10:25.246Z,69.84
2022-11-08T04:13:09.998Z,69.49
2022-11-08T04:15:37.387Z,69.46
2022-11-08T04:18:22.756Z,69.49
2022-11-08T04:21:08.164Z,69.27
2022-11-08T04:23:37.447Z,69.23
2022-11-08T04:26:05.895Z,69.77
2022-11-08T04:28:35.935Z,70.01
2022-11-08T04:31:04.245Z,69.06
2022-11-08T04:33:31.729Z,69.32
2022-11-08T04:36:02.904Z,69.10
2022-11-08T04:38:30.887Z,69.13
2022-11-08T04:41:03.633Z,69.18
2022-11-08T04:43:31.223Z,69.05
2022-11-08T04:46:02.726Z,69.37
2022-11-08T04:48:30.337Z,69.28
2022-11-08T04:51:02.425Z,69.10
2022-11-08T04:53:29.827Z,69.19
2022-11-08T04:56:02.861Z,69.24
2022-11-08T04:58:30.367Z,69.29
2022-11-08T05:01:00.979Z,69.04
2022-11-08T05:03:28.469Z,69.41
2022-11-08T05:05:55.863Z,69.25
2022-11-08T05:08:23.280Z,69.43
2022-11-08T05:10:50.717Z,69.48
2022-11-08T05:13:19.421Z,69.17
2022-11-08T05:15:46.827Z,69.04
2022-11-08T05:18:14.317Z,69.08
2022-11-08T05:20:59.746Z,68.98
2022-11-08T05:23:27.257Z,69.00
2022-11-08T05:25:54.925Z,69.29
2022-11-08T05:28:25.114Z,69.41
2022-11-08T05:30:53.609Z,69.23
2022-11-08T05:33:21.080Z,69.56
2022-11-08T05:35:48.486Z,69.41
2022-11-08T05:38:16.278Z,69.46
2022-11-08T05:40:43.944Z,69.44
2022-11-08T05:43:11.401Z,69.64
2022-11-08T05:45:40.111Z,69.30
2022-11-08T05:48:07.909Z,69.59
2022-11-08T05:50:35.489Z,69.12
2022-11-08T05:53:05.791Z,69.75
2022-11-08T05:55:33.212Z,69.92
2022-11-08T05:58:00.771Z,70.57
2022-11-08T06:00:28.167Z,70.19
2022-11-08T06:02:57.087Z,69.98
2022-11-08T06:05:24.601Z,71.62
2022-11-08T06:07:53.837Z,71.66
2022-11-08T06:10:21.286Z,72.26
2022-11-08T06:12:48.693Z,72.74
2022-11-08T06:15:16.091Z,72.52
2022-11-08T06:17:43.529Z,72.75
2022-11-08T06:20:13.802Z,72.67
2022-11-08T06:22:41.258Z,72.38
2022-11-08T06:25:09.472Z,72.31
2022-11-08T06:27:36.944Z,72.52
2022-11-08T06:30:04.812Z,71.98
2022-11-08T06:32:32.238Z,72.08
2022-11-08T06:34:59.630Z,71.69
2022-11-08T06:37:28.343Z,71.38
2022-11-08T06:39:55.761Z,71.16
2022-11-08T06:42:23.160Z,71.23
2022-11-08T06:44:50.570Z,71.07
2022-11-08T06:47:18.014Z,70.96
2022-11-08T06:49:45.411Z,70.97
2022-11-08T06:52:12.844Z,70.77
2022-11-08T06:54:41.524Z,70.93
2022-11-08T06:57:08.934Z,70.88
2022-11-08T06:59:36.353Z,70.87
2022-11-08T07:02:03.839Z,70.65
2022-11-08T07:04:31.312Z,70.64
2022-11-08T07:06:58.735Z,70.53
2022-11-08T07:09:26.225Z,70.55
2022-11-08T07:11:54.918Z,70.54
2022-11-08T07:14:22.397Z,70.22
2022-11-08T07:16:49.879Z,70.54
2022-11-08T07:19:17.457Z,70.12
2022-11-08T07:21:44.876Z,70.17
2022-11-08T07:24:12.301Z,70.26
2022-11-08T07:26:39.735Z,70.09
2022-11-08T07:29:11.048Z,70.11
2022-11-08T07:31:42.258Z,70.17
2022-11-08T07:34:09.765Z,70.03
2022-11-08T07:36:40.298Z,69.70
2022-11-08T07:39:07.692Z,70.04
2022-11-08T07:41:35.131Z,69.62
2022-11-08T07:44:02.558Z,69.84
2022-11-08T07:46:31.679Z,69.64
2022-11-08T07:48:59.087Z,69.67
2022-11-08T07:51:26.488Z,69.57
2022-11-08T07:53:53.911Z,69.46
2022-11-08T07:56:21.335Z,69.22
2022-11-08T07:58:48.777Z,69.44
2022-11-08T08:01:16.168Z,69.55
2022-11-08T08:03:44.868Z,69.48
2022-11-08T08:06:12.302Z,69.22
2022-11-08T08:08:39.745Z,69.48
2022-11-08T08:11:07.336Z,69.26
2022-11-08T08:13:34.882Z,69.28
2022-11-08T08:16:02.412Z,69.28
2022-11-08T08:18:29.859Z,68.99
2022-11-08T08:20:58.560Z,69.12
2022-11-08T08:23:25.978Z,69.18
2022-11-08T08:25:53.729Z,69.25
2022-11-08T08:28:21.146Z,69.25
2022-11-08T08:30:48.553Z,69.02
2022-11-08T08:33:32.451Z,68.95
2022-11-08T08:36:02.048Z,69.08
2022-11-08T08:38:30.047Z,68.90
2022-11-08T08:40:57.453Z,68.74
2022-11-08T08:43:24.928Z,68.82
2022-11-08T08:45:52.379Z,69.01
2022-11-08T08:48:19.775Z,68.66
2022-11-08T08:50:47.337Z,68.69
2022-11-08T08:53:16.463Z,68.88
2022-11-08T08:55:44.155Z,68.90
2022-11-08T08:58:11.806Z,68.89
2022-11-08T09:03:26.593Z,68.82
2022-11-08T09:05:53.990Z,68.88
2022-11-08T09:08:22.776Z,68.74
2022-11-08T09:10:53.934Z,68.61
2022-11-08T09:13:21.422Z,68.50
2022-11-08T09:15:48.927Z,68.43
2022-11-08T09:18:17.498Z,68.09
2022-11-08T09:20:45.000Z,67.92
2022-11-08T09:23:12.410Z,67.68
2022-11-08T09:25:41.187Z,67.33
2022-11-08T09:28:09.293Z,67.43
2022-11-08T09:30:36.985Z,67.18
2022-11-08T09:33:04.908Z,66.51
2022-11-08T09:35:32.476Z,67.08
2022-11-08T09:37:59.928Z,66.04
2022-11-08T09:40:30.563Z,65.77
2022-11-08T09:43:07.334Z,64.50
2022-11-08T09:45:35.500Z,64.97
2022-11-08T09:48:05.449Z,64.76
2022-11-08T09:50:36.682Z,63.99
2022-11-08T09:53:10.326Z,63.87
2022-11-08T09:55:39.399Z,64.53
2022-11-08T09:58:19.120Z,63.69
2022-11-08T10:00:50.723Z,63.95
2022-11-08T10:03:18.893Z,63.55
2022-11-08T10:05:51.501Z,63.66
2022-11-08T10:08:22.628Z,63.62
2022-11-08T10:10:57.140Z,62.84
2022-11-08T10:13:31.130Z,62.42
2022-11-08T10:16:02.460Z,62.61
2022-11-08T10:18:40.837Z,61.80
2022-11-08T10:21:11.530Z,62.57
2022-11-08T10:23:46.074Z,62.34
2022-11-08T10:26:15.871Z,62.08
2022-11-08T10:28:50.257Z,62.27
2022-11-08T10:31:18.526Z,61.91
2022-11-08T10:33:46.895Z,61.96
2022-11-08T10:38:58.027Z,61.79
2022-11-08T10:41:27.324Z,61.58
2022-11-08T10:43:57.541Z,61.56
2022-11-08T10:46:37.906Z,61.63
2022-11-08T10:49:11.834Z,61.30
2022-11-08T10:51:39.404Z,61.23
2022-11-08T10:54:06.836Z,61.14
2022-11-08T10:56:38.695Z,60.80
2022-11-08T10:59:11.758Z,61.34
2022-11-08T11:01:42.488Z,60.87
2022-11-08T11:04:26.178Z,61.03
2022-11-08T11:06:53.686Z,61.00
2022-11-08T11:09:22.004Z,60.54
2022-11-08T11:11:56.624Z,60.38
2022-11-08T11:14:25.330Z,60.49
2022-11-08T11:16:57.247Z,60.58
2022-11-08T11:19:24.896Z,60.21
2022-11-08T11:21:56.016Z,59.96
2022-11-08T11:24:23.453Z,59.52
2022-11-08T11:27:00.644Z,59.72
2022-11-08T11:29:29.938Z,59.49
2022-11-08T11:31:57.402Z,59.14
2022-11-08T11:34:40.996Z,59.55
2022-11-08T11:37:15.804Z,59.61
2022-11-08T11:39:45.894Z,59.75
2022-11-08T11:42:43.983Z,59.92
2022-11-08T11:45:09.470Z,59.63
2022-11-08T11:47:40.587Z,59.91
2022-11-08T11:50:13.439Z,60.03
2022-11-08T11:52:40.861Z,59.78
2022-11-08T11:55:12.365Z,59.50
2022-11-08T11:57:41.285Z,59.48
2022-11-08T12:00:10.914Z,59.22
2022-11-08T12:02:46.315Z,59.53
2022-11-08T12:05:28.772Z,59.13
2022-11-08T12:08:00.673Z,58.91
2022-11-08T12:10:31.053Z,58.61
2022-11-08T12:13:01.491Z,58.89
2022-11-08T12:15:31.829Z,58.49
2022-11-08T12:18:10.046Z,58.21
2022-11-08T12:20:42.866Z,58.00
2022-11-08T12:23:38.653Z,58.35
2022-11-08T12:26:10.366Z,58.28
2022-11-08T12:28:45.846Z,58.12
2022-11-08T12:31:20.059Z,58.06
2022-11-08T12:33:56.735Z,58.34
2022-11-08T12:36:39.512Z,58.15
2022-11-08T12:39:13.499Z,58.09
2022-11-08T12:41:43.529Z,57.66
2022-11-08T12:44:18.636Z,57.88
2022-11-08T12:46:53.522Z,57.83
2022-11-08T12:49:26.527Z,57.73
2022-11-08T12:52:02.856Z,57.57
2022-11-08T12:54:32.576Z,57.70
2022-11-08T12:57:01.920Z,57.55
2022-11-08T12:59:30.185Z,58.02
2022-11-08T13:01:58.880Z,58.24
2022-11-08T13:04:40.044Z,57.83
2022-11-08T13:07:12.869Z,58.42
2022-11-08T13:09:43.332Z,58.52
2022-11-08T13:12:23.080Z,58.78
2022-11-08T13:14:50.487Z,59.10
2022-11-08T13:17:24.778Z,59.54
2022-11-08T13:20:06.305Z,59.37
2022-11-08T13:22:57.499Z,59.33
2022-11-08T13:25:38.236Z,59.30
2022-11-08T13:28:37.057Z,59.77
2022-11-08T13:31:18.662Z,59.58
2022-11-08T13:33:52.086Z,59.58
2022-11-08T13:36:24.418Z,59.53
2022-11-08T13:38:55.828Z,59.67
2022-11-08T13:41:24.124Z,59.79
2022-11-08T13:43:51.823Z,59.74
2022-11-08T13:46:47.594Z,59.57
2022-11-08T13:49:18.085Z,59.69
2022-11-08T13:51:46.052Z,60.06
2022-11-08T13:54:46.165Z,59.80
2022-11-08T13:57:18.300Z,59.96
2022-11-08T13:59:55.286Z,60.05
2022-11-08T14:02:35.856Z,60.16
2022-11-08T14:05:40.149Z,60.40
2022-11-08T14:08:26.716Z,60.06
2022-11-08T14:11:06.875Z,60.21
2022-11-08T14:13:36.006Z,60.12
2022-11-08T14:16:04.159Z,60.52
2022-11-08T14:18:32.358Z,60.33
2022-11-08T14:21:01.049Z,60.49
2022-11-08T14:23:29.659Z,60.61
2022-11-08T14:25:57.709Z,60.47
2022-11-08T14:28:26.304Z,60.37
2022-11-08T14:30:53.904Z,60.50
2022-11-08T14:33:22.442Z,60.71
2022-11-08T14:35:53.839Z,60.61
2022-11-08T14:38:22.548Z,60.59
2022-11-08T14:40:50.275Z,60.36
2022-11-08T14:43:17.960Z,60.83
2022-11-08T14:45:45.716Z,60.54
2022-11-08T14:48:14.882Z,60.95
2022-11-08T14:50:42.350Z,60.95
2022-11-08T14:53:26.383Z,60.99
2022-11-08T14:55:57.114Z,61.08
2022-11-08T14:58:28.261Z,61.16
2022-11-08T15:00:55.734Z,61.13
2022-11-08T15:03:31.911Z,61.40
2022-11-08T15:05:59.940Z,61.29
2022-11-08T15:08:29.903Z,61.23
2022-11-08T15:10:58.440Z,61.44
2022-11-08T15:13:26.606Z,61.20
2022-11-08T15:15:55.025Z,61.44
2022-11-08T15:18:26.595Z,61.36
2022-11-08T15:20:55.605Z,61.21
2022-11-08T15:23:33.371Z,61.22
2022-11-08T15:26:00.820Z,61.36
2022-11-08T15:28:32.532Z,61.33
2022-11-08T15:31:00.936Z,61.35
2022-11-08T15:33:30.673Z,61.45
2022-11-08T15:35:58.333Z,61.69
2022-11-08T15:38:31.191Z,61.71
2022-11-08T15:40:59.733Z,61.83
2022-11-08T15:43:37.073Z,61.73
2022-11-08T15:46:05.335Z,61.72
2022-11-08T15:48:33.330Z,61.76
2022-11-08T15:51:00.746Z,61.69
2022-11-08T15:53:29.497Z,61.64
2022-11-08T15:55:58.367Z,61.76
2022-11-08T15:58:28.035Z,61.64
2022-11-08T16:00:56.561Z,61.08
2022-11-08T16:03:24.100Z,60.68
2022-11-08T16:05:51.504Z,60.55
2022-11-08T16:08:20.872Z,60.33
2022-11-08T16:10:50.671Z,60.45
2022-11-08T16:13:20.207Z,60.15
2022-11-08T16:15:48.069Z,60.08
2022-11-08T16:18:16.402Z,59.92
2022-11-08T16:20:44.038Z,60.07
2022-11-08T16:23:11.968Z,60.76
2022-11-08T16:25:40.314Z,60.99
2022-11-08T16:28:15.125Z,60.83
2022-11-08T16:30:46.662Z,61.11
2022-11-08T16:33:18.873Z,61.06
2022-11-08T16:35:46.277Z,61.10
2022-11-08T16:38:13.688Z,61.23
2022-11-08T16:40:41.882Z,61.04
2022-11-08T16:43:12.101Z,61.21
2022-11-08T16:46:03.637Z,61.12
2022-11-08T16:48:27.450Z,61.06
2022-11-08T16:50:58.664Z,61.14
2022-11-08T16:53:26.271Z,61.29
2022-11-08T16:55:53.774Z,61.37
2022-11-08T16:58:22.488Z,61.29
2022-11-08T17:00:49.913Z,61.50
2022-11-08T17:03:19.191Z,61.36
2022-11-08T17:05:46.615Z,61.55
2022-11-08T17:08:14.063Z,61.44
2022-11-08T17:10:41.484Z,61.63
2022-11-08T17:13:10.695Z,61.62
2022-11-08T17:15:39.390Z,61.70
2022-11-08T17:18:06.876Z,61.49
2022-11-08T17:20:34.291Z,61.32
2022-11-08T17:23:02.453Z,61.51
2022-11-08T17:25:29.854Z,61.54
2022-11-08T17:27:57.246Z,61.56
2022-11-08T17:30:26.842Z,61.38
2022-11-08T17:32:55.808Z,61.42
2022-11-08T17:35:23.256Z,61.37
2022-11-08T17:37:50.674Z,61.60
2022-11-08T17:40:18.091Z,61.42
2022-11-08T17:42:46.497Z,61.50
2022-11-08T17:45:13.978Z,61.54
2022-11-08T17:47:41.617Z,61.38
2022-11-08T17:50:10.926Z,61.36
2022-11-08T17:52:38.347Z,61.68
2022-11-08T17:55:06.543Z,61.67
2022-11-08T17:57:34.051Z,61.54
2022-11-08T18:00:02.100Z,61.54
2022-11-08T18:02:29.612Z,61.98
2022-11-08T18:04:57.223Z,61.82
2022-11-08T18:07:25.960Z,61.57
2022-11-08T18:09:53.369Z,61.85
2022-11-08T18:12:20.801Z,62.55
2022-11-08T18:14:48.484Z,63.02
2022-11-08T18:17:15.881Z,62.74
2022-11-08T18:19:44.644Z,62.60
2022-11-08T18:22:12.061Z,62.44
2022-11-08T18:24:41.951Z,62.34
2022-11-08T18:27:11.056Z,62.35
2022-11-08T18:29:38.454Z,62.25
2022-11-08T18:32:06.371Z,62.57
2022-11-08T18:34:33.776Z,62.32
2022-11-08T18:37:01.186Z,62.16
2022-11-08T18:39:28.598Z,62.16
2022-11-08T18:41:57.331Z,62.16
2022-11-08T18:44:24.729Z,62.46
2022-11-08T18:46:52.204Z,62.35
2022-11-08T18:49:20.088Z,62.30
2022-11-08T18:51:51.828Z,61.87
2022-11-08T18:54:19.305Z,61.83
2022-11-08T18:56:46.715Z,62.16
2022-11-08T18:59:15.483Z,61.84
2022-11-08T19:01:42.938Z,61.77
2022-11-08T19:04:10.405Z,61.87
2022-11-08T19:06:37.953Z,61.80
2022-11-08T19:09:05.516Z,61.99
2022-11-08T19:11:32.977Z,61.71
2022-11-08T19:14:01.920Z,61.65
2022-11-08T19:16:30.673Z,61.71
2022-11-08T19:18:58.074Z,61.66
2022-11-08T19:21:26.324Z,61.66
2022-11-08T19:23:53.810Z,61.62
2022-11-08T19:26:22.750Z,61.87
2022-11-08T19:28:50.617Z,61.76
2022-11-08T19:31:19.351Z,61.70
2022-11-08T19:33:48.399Z,61.65
2022-11-08T19:36:16.947Z,61.59
2022-11-08T19:38:44.553Z,61.50
2022-11-08T19:41:12.783Z,61.45
2022-11-08T19:43:40.957Z,61.81
2022-11-08T19:46:09.351Z,61.81
2022-11-08T19:48:37.659Z,63.11
2022-11-08T19:51:07.770Z,63.66
2022-11-08T19:53:35.259Z,63.47
2022-11-08T19:56:02.736Z,63.59
2022-11-08T19:58:31.582Z,63.34
2022-11-08T20:00:58.990Z,62.95
2022-11-08T20:03:26.521Z,62.63
2022-11-08T20:05:54.363Z,62.72
2022-11-08T20:08:23.305Z,62.79
2022-11-08T20:10:51.469Z,62.89
2022-11-08T20:13:18.910Z,63.61
2022-11-08T20:15:46.405Z,63.71
2022-11-08T20:18:14.053Z,63.49
2022-11-08T20:20:41.533Z,63.63
2022-11-08T20:23:08.999Z,63.69
2022-11-08T20:25:37.772Z,63.64
2022-11-08T20:28:05.351Z,63.62
2022-11-08T20:30:32.751Z,63.87
2022-11-08T20:33:00.154Z,63.91
2022-11-08T20:35:27.579Z,63.86
2022-11-08T20:37:57.285Z,63.83
2022-11-08T20:40:24.685Z,63.99
2022-11-08T20:42:53.409Z,63.85
2022-11-08T20:45:20.822Z,63.70
2022-11-08T20:47:48.580Z,63.86
2022-11-08T20:50:16.128Z,63.77
2022-11-08T20:52:43.604Z,63.80
2022-11-08T20:55:11.021Z,63.83
2022-11-08T20:57:38.413Z,63.68
2022-11-08T21:00:13.508Z,63.85
2022-11-08T21:02:41.369Z,63.75
2022-11-08T21:05:09.340Z,63.75
2022-11-08T21:13:11.687Z,63.95
2022-11-08T21:15:43.748Z,64.04
2022-11-08T21:18:11.244Z,63.90
2022-11-08T21:20:38.741Z,63.83
2022-11-08T21:23:06.273Z,63.95
2022-11-08T21:25:33.771Z,63.79
2022-11-08T21:28:01.256Z,63.88
2022-11-08T21:30:28.868Z,64.02
2022-11-08T21:32:57.706Z,63.90
2022-11-08T21:35:25.182Z,64.10
2022-11-08T21:37:52.700Z,63.99
2022-11-08T21:40:20.174Z,64.03
2022-11-08T21:42:49.028Z,64.28
2022-11-08T21:45:16.719Z,64.22
2022-11-08T21:47:44.195Z,64.11
2022-11-08T21:50:13.010Z,64.13
2022-11-08T21:52:40.488Z,64.34
2022-11-08T21:55:08.410Z,64.38
2022-11-08T21:57:35.916Z,64.18
2022-11-08T22:00:03.411Z,64.55
2022-11-08T22:02:35.975Z,64.58
2022-11-08T22:05:03.635Z,64.52
2022-11-08T22:07:32.464Z,64.84
2022-11-08T22:09:59.953Z,64.65
2022-11-08T22:17:22.353Z,64.70
2022-11-08T22:19:49.868Z,65.02
2022-11-08T22:22:17.570Z,64.71
2022-11-08T22:24:47.278Z,64.88
2022-11-08T22:27:14.821Z,64.81
2022-11-08T22:29:42.317Z,64.66
2022-11-08T22:32:09.811Z,65.19
2022-11-08T22:34:37.304Z,64.94
2022-11-08T22:37:04.792Z,64.84
2022-11-08T22:39:32.266Z,65.14
2022-11-08T22:42:01.082Z,65.17
2022-11-08T22:44:28.579Z,65.42
2022-11-08T22:46:56.063Z,65.21
2022-11-08T22:49:23.574Z,65.21
2022-11-08T22:51:51.070Z,65.59
2022-11-08T22:54:18.556Z,65.65
2022-11-08T22:56:46.044Z,65.47
2022-11-08T22:59:14.855Z,65.75
2022-11-08T23:01:42.315Z,65.38
2022-11-08T23:04:11.214Z,65.58
2022-11-08T23:06:39.093Z,65.32
2022-11-08T23:09:06.669Z,65.39
2022-11-08T23:11:51.810Z,65.60
2022-11-08T23:14:38.481Z,65.75
2022-11-08T23:17:07.364Z,65.35
2022-11-08T23:19:52.675Z,65.57
2022-11-08T23:22:37.906Z,65.57
2022-11-08T23:25:06.103Z,65.37
2022-11-08T23:27:51.225Z,65.68
2022-11-08T23:30:37.757Z,65.51
2022-11-08T23:33:06.524Z,65.38
2022-11-08T23:35:34.136Z,65.60
2022-11-08T23:38:01.665Z,65.36
2022-11-08T23:40:46.892Z,65.25
2022-11-08T23:43:32.837Z,65.59
2022-11-08T23:46:06.531Z,65.70
2022-11-08T23:48:33.969Z,65.59
2022-11-08T23:51:01.441Z,65.46
2022-11-08T23:53:29.467Z,65.15
2022-11-08T23:55:56.956Z,65.46
2022-11-08T23:58:24.716Z,65.22
